Terminal Aerodrome Forecast
Issued by NWS

Home | Current Version | Previous Version | Text Only | Print | Product List | Glossary On
Versions: 1 2 3 4 5 6 7 8 9 10 11 12 13 14 15 16 17 18 19
000
FTUS45 KVEF 061120
TAFVGT
TAF
KVGT 061120Z 0612/0712 04004KT P6SM SHRA SCT120 BKN150 OVC200
     FM061400 16006KT P6SM FEW120 SCT150
     FM062000 19010KT P6SM VCTS SCT100CB BKN150 BKN200
     FM070300 21008KT P6SM FEW120 SCT150=

USA.gov is the U.S. government's official web portal to all federal, state and local government web resources and services.